Time;durP1;ratioP1;P1;durP2;ratioP2;P2;SDS_P1;SDS_P2;PMS_P1;PMS_P2;Temp;Humidity;BMP_temperature;BMP_pressure;BME280_temperature;BME280_humidity;BME280_pressure;Samples;Min_cycle;Max_cycle;Signal;HPM_P1;HPM_P2
2023/01/08 00:02:03;;;;;;;6.03;4.13;;;9.30;85.80;;;;;;5018911;28;20455;-45
2023/01/08 00:04:32;;;;;;;5.30;4.00;;;9.30;86.10;;;;;;5014267;28;20025;-47
2023/01/08 00:07:04;;;;;;;4.10;3.35;;;9.30;86.00;;;;;;5030642;28;20398;-45
2023/01/08 00:09:30;;;;;;;8.57;4.05;;;9.20;86.10;;;;;;5031120;28;20037;-46
2023/01/08 00:11:57;;;;;;;5.20;4.05;;;9.20;86.30;;;;;;5022549;28;20090;-45
2023/01/08 00:14:26;;;;;;;5.13;3.70;;;9.20;86.50;;;;;;5046818;28;20044;-46
2023/01/08 00:16:53;;;;;;;6.32;3.40;;;9.20;86.30;;;;;;5014765;28;20049;-47
2023/01/08 00:19:20;;;;;;;5.97;3.92;;;9.20;86.40;;;;;;5033122;28;20034;-47
2023/01/08 00:21:46;;;;;;;5.38;3.90;;;9.20;86.40;;;;;;5030988;28;20033;-48
2023/01/08 00:24:14;;;;;;;5.05;3.83;;;9.20;86.60;;;;;;5033377;28;20018;-46
2023/01/08 00:26:43;;;;;;;5.45;3.35;;;9.20;86.70;;;;;;5030794;28;20088;-47
2023/01/08 00:29:09;;;;;;;4.78;4.00;;;9.30;86.50;;;;;;5046864;28;20430;-47
2023/01/08 00:31:35;;;;;;;6.07;4.00;;;9.20;86.50;;;;;;5041682;28;20041;-44
2023/01/08 00:34:02;;;;;;;6.20;3.88;;;9.20;86.50;;;;;;5031269;28;20361;-47
2023/01/08 00:36:29;;;;;;;4.85;3.60;;;9.20;86.60;;;;;;5033082;28;20029;-45
2023/01/08 00:38:58;;;;;;;4.90;3.78;;;9.20;86.60;;;;;;5034579;28;20131;-48
2023/01/08 00:41:27;;;;;;;5.40;3.50;;;9.20;86.60;;;;;;5051288;28;20028;-45
2023/01/08 00:43:54;;;;;;;6.25;4.13;;;9.20;86.70;;;;;;5028432;28;20029;-46
2023/01/08 00:46:21;;;;;;;6.35;4.05;;;9.20;86.80;;;;;;5020442;28;20085;-45
2023/01/08 00:48:48;;;;;;;5.38;3.80;;;9.20;86.60;;;;;;5017373;28;20033;-49
2023/01/08 00:51:14;;;;;;;4.72;3.20;;;9.10;86.50;;;;;;5029096;28;20029;-47
2023/01/08 00:53:40;;;;;;;4.85;3.72;;;9.10;86.70;;;;;;5031780;28;20040;-48
2023/01/08 00:56:10;;;;;;;6.80;3.95;;;9.00;86.80;;;;;;5031892;28;20025;-47
2023/01/08 00:58:40;;;;;;;5.90;3.78;;;9.00;86.70;;;;;;5029823;28;20033;-45
2023/01/08 01:01:12;;;;;;;5.28;3.35;;;8.90;86.90;;;;;;5032516;28;20057;-48
2023/01/08 01:03:38;;;;;;;5.03;3.85;;;8.90;87.20;;;;;;5015276;28;20362;-46
2023/01/08 01:06:07;;;;;;;4.70;3.53;;;8.80;87.30;;;;;;5032788;28;20456;-48
2023/01/08 01:08:37;;;;;;;4.95;3.63;;;8.90;87.40;;;;;;5032886;28;20482;-46
2023/01/08 01:11:11;;;;;;;5.53;3.95;;;8.70;87.50;;;;;;5027551;28;20053;-50
2023/01/08 01:13:38;;;;;;;6.60;4.38;;;8.70;87.80;;;;;;5029586;28;20117;-44
2023/01/08 01:16:05;;;;;;;5.32;4.05;;;8.60;87.90;;;;;;5050875;28;20039;-50
2023/01/08 01:18:34;;;;;;;9.23;4.40;;;8.60;88.10;;;;;;5044196;28;20096;-47
2023/01/08 01:21:01;;;;;;;5.07;3.43;;;8.60;88.40;;;;;;5011600;28;20026;-48
2023/01/08 01:23:28;;;;;;;5.07;3.50;;;8.60;88.70;;;;;;5013057;28;20343;-46
2023/01/08 01:25:55;;;;;;;7.03;3.88;;;8.60;88.70;;;;;;5012685;28;20026;-50
2023/01/08 01:28:22;;;;;;;6.38;4.45;;;8.60;88.70;;;;;;5024739;28;20436;-49
2023/01/08 01:30:54;;;;;;;6.30;3.72;;;8.50;88.70;;;;;;5050920;28;20032;-47
2023/01/08 01:33:21;;;;;;;5.32;3.53;;;8.50;88.90;;;;;;5035768;28;20088;-46
2023/01/08 01:35:47;;;;;;;6.40;4.40;;;8.50;89.10;;;;;;5012880;28;20018;-48
2023/01/08 01:38:18;;;;;;;8.70;4.00;;;8.40;89.20;;;;;;5023983;28;20492;-45
2023/01/08 01:40:45;;;;;;;7.22;4.03;;;8.40;89.40;;;;;;5024021;28;20076;-45
2023/01/08 01:43:14;;;;;;;6.43;4.70;;;8.40;89.50;;;;;;5021754;28;20034;-47
2023/01/08 01:45:44;;;;;;;5.68;4.43;;;8.40;89.70;;;;;;5033872;28;20031;-47
2023/01/08 01:48:13;;;;;;;5.82;4.15;;;8.40;89.60;;;;;;5049613;28;20037;-48
2023/01/08 01:50:47;;;;;;;6.65;4.00;;;8.40;89.70;;;;;;5052022;28;20029;-45
2023/01/08 01:53:43;;;;;;;6.75;4.20;;;8.40;89.70;;;;;;5049240;28;20029;-46
2023/01/08 01:56:10;;;;;;;7.57;3.40;;;8.40;89.80;;;;;;5015475;28;20145;-45
2023/01/08 01:58:37;;;;;;;5.15;3.97;;;8.40;90.00;;;;;;5027401;28;20030;-44
2023/01/08 02:01:06;;;;;;;5.45;4.22;;;8.30;90.00;;;;;;5035846;28;20386;-49
2023/01/08 02:03:37;;;;;;;6.45;4.45;;;8.40;90.20;;;;;;5019500;28;20432;-50
2023/01/08 02:06:25;;;;;;;5.75;3.88;;;8.30;90.40;;;;;;5022592;28;20357;-45
2023/01/08 02:09:05;;;;;;;5.57;3.63;;;8.40;90.60;;;;;;5042883;28;20033;-45
2023/01/08 02:11:39;;;;;;;5.50;4.15;;;8.40;90.70;;;;;;5035948;28;20030;-46
2023/01/08 02:14:36;;;;;;;6.10;3.97;;;8.40;90.90;;;;;;5039117;28;20039;-44
2023/01/08 02:17:09;;;;;;;5.47;3.92;;;8.40;90.80;;;;;;5053649;28;20021;-46
2023/01/08 02:19:56;;;;;;;6.97;3.40;;;8.40;90.90;;;;;;5034636;28;20033;-46
2023/01/08 02:22:35;;;;;;;5.82;3.90;;;8.50;90.90;;;;;;5035846;28;20025;-45
2023/01/08 02:25:25;;;;;;;4.97;3.72;;;8.50;91.10;;;;;;5014780;28;20037;-49
2023/01/08 02:27:53;;;;;;;6.18;4.00;;;8.60;91.10;;;;;;5025739;28;20025;-45
2023/01/08 02:30:19;;;;;;;4.90;3.15;;;8.70;91.00;;;;;;5034586;28;20112;-46
2023/01/08 02:32:47;;;;;;;6.07;3.47;;;8.70;91.10;;;;;;5031267;28;20133;-47
2023/01/08 02:35:16;;;;;;;6.60;4.45;;;8.80;91.10;;;;;;5022614;28;20466;-46
2023/01/08 02:37:43;;;;;;;6.70;4.22;;;8.90;91.10;;;;;;5035528;28;20041;-45
2023/01/08 02:40:34;;;;;;;5.50;3.53;;;8.90;91.20;;;;;;5035396;28;20037;-47
2023/01/08 02:43:25;;;;;;;5.57;3.40;;;8.90;91.30;;;;;;5032323;28;20029;-49
2023/01/08 02:45:57;;;;;;;4.75;3.97;;;8.90;91.50;;;;;;5033900;28;20034;-46
2023/01/08 02:48:46;;;;;;;8.40;4.28;;;9.00;91.70;;;;;;5035448;28;20025;-44
2023/01/08 02:51:34;;;;;;;4.70;3.33;;;9.00;91.90;;;;;;5019204;28;20097;-45
2023/01/08 02:54:08;;;;;;;6.72;4.30;;;9.00;91.90;;;;;;5025838;28;20076;-44
2023/01/08 02:56:40;;;;;;;5.35;3.45;;;9.10;91.90;;;;;;5032979;28;20329;-44
2023/01/08 02:59:10;;;;;;;7.13;4.63;;;9.00;91.80;;;;;;5032962;28;20029;-47
2023/01/08 03:01:38;;;;;;;6.80;3.03;;;9.00;91.80;;;;;;5033980;28;20387;-45
2023/01/08 03:04:18;;;;;;;5.15;3.20;;;9.00;91.60;;;;;;5029375;28;20025;-49
2023/01/08 03:06:45;;;;;;;4.93;3.22;;;8.90;91.60;;;;;;5038346;28;20217;-46
2023/01/08 03:09:14;;;;;;;5.13;3.60;;;8.90;91.40;;;;;;5054617;28;20036;-47
2023/01/08 03:11:58;;;;;;;5.85;3.60;;;8.90;91.50;;;;;;5054338;28;20025;-45
2023/01/08 03:14:56;;;;;;;4.20;3.10;;;8.90;91.40;;;;;;5025766;28;20167;-47
2023/01/08 03:17:34;;;;;;;5.10;3.00;;;9.00;91.50;;;;;;5029972;28;20060;-44
2023/01/08 03:20:12;;;;;;;4.50;3.40;;;9.00;91.30;;;;;;5014768;28;20034;-49
2023/01/08 03:22:43;;;;;;;6.15;2.92;;;9.00;91.10;;;;;;5014661;28;20033;-45
2023/01/08 03:25:13;;;;;;;5.03;3.08;;;9.00;90.90;;;;;;5031276;28;20033;-45
2023/01/08 03:27:44;;;;;;;4.88;3.30;;;9.00;90.90;;;;;;5028951;28;20026;-45
2023/01/08 03:30:13;;;;;;;4.20;2.95;;;9.00;90.90;;;;;;5029465;28;20053;-47
2023/01/08 03:32:42;;;;;;;6.57;2.95;;;9.00;90.90;;;;;;5032624;28;20025;-46
2023/01/08 03:35:11;;;;;;;4.18;2.30;;;9.10;90.90;;;;;;5031948;28;20036;-47
2023/01/08 03:37:44;;;;;;;3.95;2.38;;;9.10;90.70;;;;;;5033888;28;20030;-45
2023/01/08 03:40:23;;;;;;;3.45;2.28;;;9.10;90.50;;;;;;5034119;28;20037;-45
2023/01/08 03:42:53;;;;;;;7.63;2.80;;;9.10;90.10;;;;;;5032693;28;20088;-46
2023/01/08 03:45:26;;;;;;;3.97;2.17;;;9.10;89.90;;;;;;5031303;28;20029;-44
2023/01/08 03:47:54;;;;;;;6.45;2.50;;;9.10;89.60;;;;;;5034175;28;20021;-45
2023/01/08 03:50:25;;;;;;;7.63;2.88;;;9.00;89.20;;;;;;5029000;28;20030;-45
2023/01/08 03:52:52;;;;;;;3.50;1.85;;;9.00;88.70;;;;;;5014312;28;20348;-50
2023/01/08 03:55:19;;;;;;;7.18;1.92;;;8.90;88.50;;;;;;5031715;28;20055;-44
2023/01/08 03:57:46;;;;;;;5.18;1.70;;;8.90;88.20;;;;;;5033536;28;20087;-45
2023/01/08 04:00:13;;;;;;;6.28;1.45;;;8.80;87.60;;;;;;5027038;28;20048;-45
2023/01/08 04:02:41;;;;;;;4.72;1.55;;;8.80;86.90;;;;;;5032669;28;20107;-47
2023/01/08 04:05:09;;;;;;;9.18;1.83;;;8.70;86.20;;;;;;5034658;28;20033;-44
2023/01/08 04:07:36;;;;;;;3.85;1.63;;;8.70;85.70;;;;;;5030720;28;20025;-45
2023/01/08 04:10:04;;;;;;;6.45;1.73;;;8.60;85.40;;;;;;5033528;28;20021;-47
2023/01/08 04:12:36;;;;;;;8.38;1.48;;;8.50;85.10;;;;;;5032135;28;20463;-46
2023/01/08 04:15:03;;;;;;;11.57;1.55;;;8.50;85.00;;;;;;5025623;28;20065;-46
2023/01/08 04:17:30;;;;;;;6.93;1.20;;;8.50;84.90;;;;;;5013037;28;20021;-44
2023/01/08 04:19:57;;;;;;;8.27;1.88;;;8.50;84.90;;;;;;5013254;28;20455;-44
2023/01/08 04:22:24;;;;;;;8.50;2.60;;;8.50;85.00;;;;;;5032041;28;20045;-47
2023/01/08 04:24:51;;;;;;;7.22;1.77;;;8.50;84.90;;;;;;5033424;28;20056;-44
2023/01/08 04:27:18;;;;;;;4.63;1.27;;;8.50;85.00;;;;;;5030937;28;20362;-45
2023/01/08 04:29:45;;;;;;;9.00;1.65;;;8.40;85.30;;;;;;5026755;28;20057;-47
2023/01/08 04:32:10;;;;;;;11.52;2.10;;;8.40;85.50;;;;;;5031822;28;20037;-44
2023/01/08 04:34:37;;;;;;;6.57;1.60;;;8.40;85.60;;;;;;5024501;28;20044;-45
2023/01/08 04:37:04;;;;;;;5.85;1.42;;;8.40;86.10;;;;;;5033224;28;20040;-43
2023/01/08 04:39:30;;;;;;;6.93;1.55;;;8.40;86.30;;;;;;5021375;28;20038;-44
2023/01/08 04:41:57;;;;;;;8.80;1.85;;;8.30;86.50;;;;;;5024321;28;20021;-45
2023/01/08 04:44:24;;;;;;;4.53;1.40;;;8.20;86.90;;;;;;5028901;28;20023;-45
2023/01/08 04:46:51;;;;;;;6.72;1.42;;;8.20;87.20;;;;;;5032582;28;20017;-46
2023/01/08 04:49:17;;;;;;;7.28;1.40;;;8.20;87.60;;;;;;5030957;28;20056;-46
2023/01/08 04:51:44;;;;;;;7.47;2.00;;;8.10;87.90;;;;;;5030314;28;20021;-46
2023/01/08 04:54:11;;;;;;;12.00;1.77;;;8.10;88.10;;;;;;5031669;28;20071;-45
2023/01/08 04:56:37;;;;;;;11.25;2.38;;;8.10;88.30;;;;;;5030332;28;20025;-44
2023/01/08 04:59:04;;;;;;;9.25;1.92;;;8.10;88.50;;;;;;5030640;28;20063;-45
2023/01/08 05:01:30;;;;;;;6.28;1.67;;;8.10;88.70;;;;;;5030875;28;20065;-45
2023/01/08 05:03:58;;;;;;;7.60;1.38;;;8.10;88.80;;;;;;5028531;28;20410;-46
2023/01/08 05:06:26;;;;;;;8.40;1.38;;;8.10;89.00;;;;;;5013221;28;20028;-45
2023/01/08 05:08:55;;;;;;;8.32;1.75;;;8.20;89.10;;;;;;5018409;28;20763;-44
2023/01/08 05:11:22;;;;;;;12.25;1.73;;;8.20;89.10;;;;;;5032670;28;20037;-43
2023/01/08 05:13:52;;;;;;;5.60;1.30;;;8.20;89.20;;;;;;5027509;28;20076;-46
2023/01/08 05:16:20;;;;;;;5.82;1.20;;;8.20;89.20;;;;;;5031545;28;20041;-43
2023/01/08 05:18:47;;;;;;;7.88;1.27;;;8.20;89.30;;;;;;5032461;28;20030;-43
2023/01/08 05:21:15;;;;;;;5.03;1.00;;;8.20;89.50;;;;;;5016441;28;20042;-47
2023/01/08 05:23:46;;;;;;;5.78;1.50;;;8.10;89.60;;;;;;5012910;28;20097;-43
2023/01/08 05:26:14;;;;;;;3.67;0.98;;;8.10;89.80;;;;;;5012761;28;20018;-47
2023/01/08 05:28:41;;;;;;;8.07;1.13;;;8.10;90.00;;;;;;5012605;28;20029;-44
2023/01/08 05:31:08;;;;;;;3.42;1.10;;;8.00;90.20;;;;;;5033116;28;20025;-44
2023/01/08 05:33:34;;;;;;;3.75;1.20;;;8.00;90.20;;;;;;5036797;28;20439;-44
2023/01/08 05:36:05;;;;;;;3.90;1.08;;;8.00;90.40;;;;;;5026665;28;20048;-48
2023/01/08 05:38:31;;;;;;;2.88;1.00;;;8.00;90.60;;;;;;5016824;28;20073;-44
2023/01/08 05:41:00;;;;;;;3.53;1.58;;;8.00;90.80;;;;;;5023798;28;20052;-43
2023/01/08 05:43:26;;;;;;;5.55;1.83;;;8.10;91.10;;;;;;5032582;28;20064;-43
2023/01/08 05:45:53;;;;;;;5.43;1.98;;;8.10;91.30;;;;;;5032832;28;20052;-43
2023/01/08 05:48:20;;;;;;;6.90;2.05;;;8.20;91.50;;;;;;5036189;28;20025;-44
2023/01/08 05:50:50;;;;;;;5.63;2.05;;;8.20;91.50;;;;;;5024056;28;20309;-43
2023/01/08 05:53:17;;;;;;;4.20;2.33;;;8.30;91.70;;;;;;5035754;28;20029;-43
2023/01/08 05:55:44;;;;;;;4.80;2.35;;;8.40;91.90;;;;;;5047829;28;20075;-46
2023/01/08 05:58:11;;;;;;;5.30;2.40;;;8.50;91.90;;;;;;5038861;28;20060;-44
2023/01/08 06:00:38;;;;;;;6.93;2.88;;;8.50;91.80;;;;;;5037788;28;20069;-45
2023/01/08 06:03:05;;;;;;;6.47;3.08;;;8.50;91.80;;;;;;5033664;28;20033;-50
2023/01/08 06:05:34;;;;;;;5.53;3.30;;;8.60;92.00;;;;;;5035471;28;20032;-57
2023/01/08 06:08:04;;;;;;;10.88;3.63;;;8.60;92.10;;;;;;5032069;28;20029;-59
2023/01/08 06:10:31;;;;;;;5.22;2.95;;;8.60;92.20;;;;;;5030904;28;20025;-58
2023/01/08 06:12:59;;;;;;;5.50;2.95;;;8.70;92.20;;;;;;5034570;28;20046;-63
2023/01/08 06:15:25;;;;;;;5.45;2.80;;;8.60;92.30;;;;;;5031541;28;20407;-58
2023/01/08 06:17:51;;;;;;;5.88;2.60;;;8.60;92.40;;;;;;5030027;28;20064;-58
2023/01/08 06:20:18;;;;;;;6.68;2.90;;;8.60;92.50;;;;;;5029707;28;20112;-59
2023/01/08 06:22:45;;;;;;;5.97;3.15;;;8.60;92.60;;;;;;5029974;28;20099;-58
2023/01/08 06:25:12;;;;;;;6.97;2.60;;;8.60;92.70;;;;;;5034809;28;20029;-59
2023/01/08 06:27:39;;;;;;;7.07;2.88;;;8.60;92.80;;;;;;5033612;28;20485;-56
2023/01/08 06:30:07;;;;;;;9.15;3.20;;;8.60;92.90;;;;;;5032453;28;20060;-54
2023/01/08 06:32:33;;;;;;;5.75;3.58;;;8.60;92.90;;;;;;5033851;28;20033;-55
2023/01/08 06:34:59;;;;;;;6.65;3.28;;;8.60;93.00;;;;;;5035387;28;20387;-56
2023/01/08 06:37:26;;;;;;;6.53;3.40;;;8.50;93.10;;;;;;5033946;28;20036;-52
2023/01/08 06:39:55;;;;;;;6.60;3.08;;;8.60;93.10;;;;;;5034004;28;20029;-49
2023/01/08 06:42:20;;;;;;;7.65;3.30;;;8.50;93.20;;;;;;5031169;28;20095;-54
2023/01/08 06:44:47;;;;;;;6.68;3.78;;;8.50;93.20;;;;;;5034352;28;20455;-51
2023/01/08 06:47:12;;;;;;;8.63;3.80;;;8.50;93.20;;;;;;5032020;28;20458;-59
2023/01/08 06:49:39;;;;;;;6.15;3.78;;;8.50;93.30;;;;;;5034717;28;20029;-61
2023/01/08 06:52:05;;;;;;;5.72;3.65;;;8.60;93.40;;;;;;5037936;28;20517;-57
2023/01/08 06:54:33;;;;;;;9.00;5.35;;;8.50;93.40;;;;;;5033835;28;20105;-55
2023/01/08 06:57:00;;;;;;;7.53;3.40;;;8.50;93.40;;;;;;5034268;28;20446;-53
2023/01/08 06:59:28;;;;;;;7.32;3.80;;;8.50;93.50;;;;;;5032382;28;20163;-53
2023/01/08 07:01:55;;;;;;;4.97;2.88;;;8.50;93.40;;;;;;5012731;28;20041;-49
2023/01/08 07:04:21;;;;;;;5.68;3.10;;;8.50;93.40;;;;;;5014784;28;20077;-51
2023/01/08 07:06:48;;;;;;;5.68;3.10;;;8.40;93.40;;;;;;5013107;28;20443;-47
2023/01/08 07:09:15;;;;;;;5.97;3.17;;;8.40;93.40;;;;;;5009969;28;20414;-50
2023/01/08 07:11:41;;;;;;;7.60;3.28;;;8.50;93.60;;;;;;5014516;28;20022;-47
2023/01/08 07:14:08;;;;;;;7.70;3.58;;;8.50;93.50;;;;;;5013796;28;20041;-47
2023/01/08 07:16:35;;;;;;;5.07;3.42;;;8.50;93.50;;;;;;5013998;28;20447;-58
2023/01/08 07:19:02;;;;;;;7.68;3.97;;;8.50;93.50;;;;;;5017086;28;20046;-52
2023/01/08 07:21:29;;;;;;;6.72;3.70;;;8.50;93.60;;;;;;5012995;28;20431;-50
2023/01/08 07:23:58;;;;;;;7.65;4.50;;;8.50;93.60;;;;;;4995413;28;20032;-51
2023/01/08 07:26:25;;;;;;;6.75;4.20;;;8.50;93.70;;;;;;5004159;28;20028;-48
2023/01/08 07:28:52;;;;;;;6.07;4.07;;;8.50;93.80;;;;;;5014192;28;20036;-54
2023/01/08 07:31:22;;;;;;;12.48;4.13;;;8.50;93.80;;;;;;5000748;28;20025;-48
2023/01/08 07:33:48;;;;;;;10.07;4.18;;;8.50;93.80;;;;;;5002151;28;20035;-51
2023/01/08 07:36:21;;;;;;;6.93;4.40;;;8.50;93.90;;;;;;4994028;28;20039;-51
2023/01/08 07:38:48;;;;;;;6.97;4.00;;;8.50;93.80;;;;;;5005319;28;21218;-52
2023/01/08 07:41:16;;;;;;;7.30;4.45;;;8.50;93.90;;;;;;5015257;28;20356;-47
2023/01/08 07:43:43;;;;;;;8.90;3.72;;;8.50;93.90;;;;;;5022244;28;20034;-50
2023/01/08 07:46:12;;;;;;;8.85;4.75;;;8.50;93.90;;;;;;5002830;28;20032;-48
2023/01/08 07:48:39;;;;;;;7.57;4.93;;;8.50;94.10;;;;;;4986349;28;20022;-48
2023/01/08 07:51:07;;;;;;;10.18;3.92;;;8.50;94.00;;;;;;5008158;28;20038;-47
2023/01/08 07:53:35;;;;;;;12.93;4.80;;;8.50;94.10;;;;;;4994674;28;20033;-52
2023/01/08 07:56:04;;;;;;;9.10;5.05;;;8.50;94.10;;;;;;5007293;28;20063;-49
2023/01/08 07:58:33;;;;;;;7.40;4.70;;;8.60;94.20;;;;;;5021604;28;20120;-46
2023/01/08 08:01:00;;;;;;;7.37;4.90;;;8.60;94.10;;;;;;5029853;28;20053;-48
2023/01/08 08:03:27;;;;;;;6.65;4.63;;;8.50;93.90;;;;;;5029664;28;20375;-51
2023/01/08 08:05:53;;;;;;;9.32;5.47;;;8.60;94.00;;;;;;5031911;28;20105;-46
2023/01/08 08:08:20;;;;;;;9.15;5.07;;;8.50;93.90;;;;;;5033668;28;20033;-46
2023/01/08 08:10:46;;;;;;;9.82;4.78;;;8.50;93.90;;;;;;5033143;28;20446;-47
2023/01/08 08:13:12;;;;;;;6.95;5.28;;;8.60;93.90;;;;;;5029204;28;20041;-46
2023/01/08 08:15:40;;;;;;;8.38;4.90;;;8.60;93.80;;;;;;5030094;28;20033;-48
2023/01/08 08:18:07;;;;;;;6.07;3.72;;;8.60;93.60;;;;;;5032479;28;20025;-47
2023/01/08 08:20:37;;;;;;;7.43;4.43;;;8.60;93.50;;;;;;5033011;28;20417;-50
2023/01/08 08:23:05;;;;;;;;;;;8.50;93.40;;;;;;5030667;28;20025;-50
2023/01/08 08:25:32;;;;;;;6.80;3.97;;;8.50;93.40;;;;;;5031898;28;19959;-46
2023/01/08 08:28:00;;;;;;;8.30;3.65;;;8.50;93.30;;;;;;5030613;28;20109;-48
2023/01/08 08:30:29;;;;;;;7.55;3.20;;;8.50;93.20;;;;;;5028188;28;20032;-48
2023/01/08 08:32:58;;;;;;;8.13;4.13;;;8.50;93.20;;;;;;5030763;28;20476;-47
2023/01/08 08:35:25;;;;;;;7.70;3.83;;;8.50;93.00;;;;;;5031067;28;20518;-46
2023/01/08 08:37:53;;;;;;;4.50;2.88;;;8.50;92.90;;;;;;5031536;28;20051;-47
2023/01/08 08:40:26;;;;;;;5.82;2.53;;;8.50;92.80;;;;;;5026722;28;20033;-45
2023/01/08 08:42:58;;;;;;;5.75;3.03;;;8.40;92.80;;;;;;5032406;28;20048;-48
2023/01/08 08:45:26;;;;;;;7.93;2.67;;;8.50;92.80;;;;;;5031579;28;20168;-46
2023/01/08 08:47:53;;;;;;;4.90;2.55;;;8.40;92.70;;;;;;5030318;28;20458;-47
2023/01/08 08:50:21;;;;;;;6.22;2.80;;;8.40;92.80;;;;;;5032676;28;20040;-48
2023/01/08 08:52:47;;;;;;;8.55;3.13;;;8.40;92.80;;;;;;5032624;28;20018;-49
2023/01/08 08:55:16;;;;;;;5.88;2.50;;;8.40;92.80;;;;;;5030143;28;20053;-45
2023/01/08 08:57:48;;;;;;;6.30;2.45;;;8.40;92.70;;;;;;5032496;28;20025;-46
2023/01/08 09:00:23;;;;;;;6.57;2.25;;;8.40;92.70;;;;;;5025528;28;20056;-47
2023/01/08 09:02:52;;;;;;;9.60;2.97;;;8.50;92.60;;;;;;5025661;28;20036;-49
2023/01/08 09:05:19;;;;;;;7.25;2.40;;;8.40;92.60;;;;;;5031872;28;20033;-48
2023/01/08 09:07:47;;;;;;;7.88;2.70;;;8.40;92.50;;;;;;5026918;28;20030;-46
2023/01/08 09:10:14;;;;;;;8.38;2.45;;;8.40;92.60;;;;;;5015401;28;20026;-47
2023/01/08 09:12:41;;;;;;;5.40;2.40;;;8.50;92.60;;;;;;5028101;28;20104;-48
2023/01/08 09:15:09;;;;;;;5.30;2.00;;;8.40;92.50;;;;;;5030697;28;20061;-48
2023/01/08 09:17:35;;;;;;;5.75;1.88;;;8.40;92.50;;;;;;5031172;28;20040;-47
2023/01/08 09:20:04;;;;;;;5.07;2.15;;;8.50;92.50;;;;;;5017500;28;20487;-46
2023/01/08 09:22:31;;;;;;;9.82;2.58;;;8.50;92.40;;;;;;5027967;28;20491;-48
2023/01/08 09:24:58;;;;;;;8.95;2.55;;;8.50;92.40;;;;;;5032470;28;20124;-49
2023/01/08 09:27:25;;;;;;;4.55;2.20;;;8.50;92.30;;;;;;5026481;28;20037;-48
2023/01/08 09:29:51;;;;;;;8.00;2.83;;;8.70;92.40;;;;;;5021292;28;20026;-47
2023/01/08 09:32:21;;;;;;;9.63;3.00;;;8.80;92.30;;;;;;5034272;28;20083;-46
2023/01/08 09:34:48;;;;;;;;;;;8.90;92.20;;;;;;5029893;28;20848;-47
2023/01/08 09:37:15;;;;;;;4.35;2.33;;;8.90;91.80;;;;;;5031612;28;19909;-46
2023/01/08 09:39:42;;;;;;;5.15;2.30;;;8.90;91.60;;;;;;5026497;28;20095;-46
2023/01/08 09:42:11;;;;;;;7.97;2.30;;;8.90;91.40;;;;;;5032185;28;20447;-47
2023/01/08 09:44:42;;;;;;;4.63;2.30;;;8.90;91.30;;;;;;5030401;28;20033;-47
2023/01/08 09:47:37;;;;;;;6.15;2.35;;;8.90;91.20;;;;;;5017528;28;20064;-47
2023/01/08 09:50:10;;;;;;;5.93;2.40;;;8.90;91.20;;;;;;5029835;28;20021;-46
2023/01/08 09:52:38;;;;;;;8.70;3.28;;;8.80;91.20;;;;;;5030611;28;20095;-45
2023/01/08 09:55:17;;;;;;;11.57;3.55;;;8.80;91.30;;;;;;5022424;28;20036;-45
2023/01/08 09:57:46;;;;;;;8.38;3.33;;;8.90;91.40;;;;;;5030016;28;20405;-44
2023/01/08 10:00:20;;;;;;;9.65;2.97;;;8.90;91.20;;;;;;5022181;28;20140;-44
2023/01/08 10:02:50;;;;;;;7.00;3.33;;;9.00;91.20;;;;;;5014780;28;20033;-45
2023/01/08 10:05:20;;;;;;;6.75;3.38;;;9.10;91.00;;;;;;5031438;28;20316;-49
2023/01/08 10:07:47;;;;;;;4.88;2.83;;;9.30;90.90;;;;;;5012762;28;20392;-51
2023/01/08 10:10:26;;;;;;;7.65;3.72;;;9.40;90.40;;;;;;5022479;28;20179;-44
2023/01/08 10:12:54;;;;;;;8.80;2.83;;;9.50;90.00;;;;;;5023044;28;20034;-45
2023/01/08 10:15:24;;;;;;;8.15;2.63;;;9.50;89.60;;;;;;5025839;28;20030;-46
2023/01/08 10:18:13;;;;;;;6.22;3.47;;;9.40;89.30;;;;;;5035946;28;20040;-50
2023/01/08 10:20:40;;;;;;;9.67;3.07;;;9.40;89.20;;;;;;5033970;28;20044;-44
2023/01/08 10:23:15;;;;;;;6.85;2.47;;;9.40;89.10;;;;;;5038904;28;20029;-46
2023/01/08 10:26:01;;;;;;;7.85;3.00;;;9.50;89.10;;;;;;5055178;28;20396;-45
2023/01/08 10:28:36;;;;;;;10.02;3.10;;;9.40;88.80;;;;;;5050454;28;20022;-45
2023/01/08 10:31:21;;;;;;;5.30;2.03;;;9.40;88.60;;;;;;5033369;28;20584;-45
2023/01/08 10:33:48;;;;;;;7.10;2.92;;;9.40;88.20;;;;;;5030522;28;20107;-45
2023/01/08 10:36:26;;;;;;;6.63;2.65;;;9.40;88.50;;;;;;5034602;28;20029;-45
2023/01/08 10:39:19;;;;;;;7.15;2.70;;;9.40;88.30;;;;;;5034006;28;20358;-45
2023/01/08 10:41:47;;;;;;;7.40;2.60;;;9.30;88.30;;;;;;5014609;28;20037;-46
2023/01/08 10:44:17;;;;;;;8.20;2.83;;;9.40;88.30;;;;;;5026218;28;20025;-45
2023/01/08 10:46:47;;;;;;;;;;;9.40;88.40;;;;;;5023983;28;20030;-48
2023/01/08 10:49:19;;;;;;;9.25;2.35;;;9.40;88.60;;;;;;5035543;28;19905;-45
2023/01/08 10:51:54;;;;;;;7.95;2.20;;;9.40;88.40;;;;;;5034046;28;20048;-44
2023/01/08 10:54:25;;;;;;;11.48;2.63;;;9.40;88.40;;;;;;5032219;28;20355;-48
2023/01/08 10:56:52;;;;;;;9.73;3.35;;;9.30;87.90;;;;;;5022921;28;20081;-48
2023/01/08 10:59:21;;;;;;;7.07;2.03;;;9.30;87.80;;;;;;5032455;28;20022;-44
2023/01/08 11:01:54;;;;;;;9.43;2.22;;;9.30;87.50;;;;;;5023334;28;20212;-47
2023/01/08 11:04:34;;;;;;;6.25;1.88;;;9.30;87.70;;;;;;5038318;28;20347;-46
2023/01/08 11:07:03;;;;;;;10.05;2.67;;;9.20;87.40;;;;;;5030010;28;20075;-45
2023/01/08 11:09:40;;;;;;;7.05;2.40;;;9.30;87.50;;;;;;5028920;28;20395;-48
2023/01/08 11:12:31;;;;;;;6.05;1.58;;;9.20;87.20;;;;;;5028447;28;20179;-50
2023/01/08 11:14:59;;;;;;;10.07;2.40;;;9.20;87.00;;;;;;5029640;28;20076;-47
2023/01/08 11:17:27;;;;;;;11.23;2.00;;;9.20;87.10;;;;;;5031677;28;20509;-45
2023/01/08 11:19:54;;;;;;;4.20;1.50;;;9.30;86.90;;;;;;5032533;28;20401;-46
2023/01/08 11:22:38;;;;;;;10.82;2.20;;;9.20;86.30;;;;;;5017449;28;20347;-46
2023/01/08 11:25:13;;;;;;;6.35;1.50;;;9.20;86.00;;;;;;5015495;28;20039;-46
2023/01/08 11:27:47;;;;;;;5.57;1.30;;;9.30;86.00;;;;;;5027460;28;20061;-45
2023/01/08 11:30:32;;;;;;;10.80;1.58;;;9.30;85.90;;;;;;5031133;28;20033;-49
2023/01/08 11:33:05;;;;;;;6.25;1.42;;;9.20;85.70;;;;;;5031202;28;20030;-45
2023/01/08 11:35:45;;;;;;;9.45;2.42;;;9.20;85.70;;;;;;5033484;28;20041;-48
2023/01/08 11:38:12;;;;;;;4.50;1.23;;;9.30;85.50;;;;;;5033470;28;20036;-47
2023/01/08 11:41:03;;;;;;;3.80;1.55;;;9.30;85.40;;;;;;5027959;28;20022;-45
2023/01/08 11:44:04;;;;;;;5.00;1.48;;;9.30;85.10;;;;;;5019727;28;20021;-50
2023/01/08 11:46:57;;;;;;;5.35;1.70;;;9.30;84.80;;;;;;5031746;28;20056;-46
2023/01/08 11:50:01;;;;;;;4.22;1.95;;;9.30;84.30;;;;;;5030671;28;20104;-48
2023/01/08 11:52:40;;;;;;;6.78;3.15;;;9.30;84.70;;;;;;5031738;28;20029;-47
2023/01/08 11:55:27;;;;;;;8.63;2.30;;;9.40;85.10;;;;;;5014132;28;20030;-46
2023/01/08 11:58:11;;;;;;;5.80;1.83;;;9.30;84.30;;;;;;5020714;28;20370;-48
2023/01/08 12:00:56;;;;;;;5.35;1.60;;;9.40;84.60;;;;;;5031293;28;20052;-46
2023/01/08 12:03:50;;;;;;;5.53;1.65;;;9.40;83.60;;;;;;5027852;28;20021;-46
2023/01/08 12:06:53;;;;;;;7.32;2.00;;;9.40;83.70;;;;;;5026127;28;20029;-46
2023/01/08 12:09:32;;;;;;;5.28;1.58;;;9.40;83.80;;;;;;5031392;28;20140;-46
2023/01/08 12:12:21;;;;;;;8.38;2.20;;;9.40;83.60;;;;;;5032494;28;20029;-46
2023/01/08 12:15:10;;;;;;;5.50;1.60;;;9.40;83.20;;;;;;5012422;28;20061;-47
2023/01/08 12:18:01;;;;;;;9.63;1.88;;;9.40;83.30;;;;;;5016418;28;20052;-46
2023/01/08 12:21:04;;;;;;;5.80;1.38;;;9.50;82.50;;;;;;5030052;28;20057;-47
2023/01/08 12:23:42;;;;;;;9.48;2.42;;;9.50;82.40;;;;;;5032449;28;20350;-49
2023/01/08 12:26:31;;;;;;;5.75;1.48;;;9.50;81.70;;;;;;5031740;28;20060;-46
2023/01/08 12:29:19;;;;;;;6.53;1.45;;;9.40;82.10;;;;;;5024965;28;20025;-46
2023/01/08 12:32:09;;;;;;;5.32;1.70;;;9.40;82.30;;;;;;5029503;28;20044;-45
2023/01/08 12:34:54;;;;;;;9.05;1.75;;;9.40;81.20;;;;;;5032779;28;20109;-47
2023/01/08 12:37:28;;;;;;;3.97;1.45;;;9.40;80.60;;;;;;5032063;28;20037;-47
2023/01/08 12:40:05;;;;;;;4.72;1.38;;;9.40;81.40;;;;;;5019501;28;20025;-46
2023/01/08 12:42:36;;;;;;;7.85;1.40;;;9.40;81.30;;;;;;5032332;28;20037;-46
2023/01/08 12:45:06;;;;;;;10.70;2.20;;;9.30;81.50;;;;;;5029618;28;20531;-46
2023/01/08 12:47:36;;;;;;;6.63;1.52;;;9.30;81.90;;;;;;5017430;28;20038;-47
2023/01/08 12:50:34;;;;;;;7.03;1.80;;;9.30;82.00;;;;;;5011122;28;20022;-46
2023/01/08 12:53:40;;;;;;;5.18;1.17;;;9.30;81.50;;;;;;5012061;28;20088;-45
2023/01/08 12:56:42;;;;;;;12.93;2.45;;;9.30;81.70;;;;;;5019362;28;20029;-48
2023/01/08 12:59:36;;;;;;;7.47;1.50;;;9.30;80.90;;;;;;5012101;28;20030;-46
2023/01/08 13:02:24;;;;;;;11.43;2.22;;;9.30;80.80;;;;;;5015585;28;20030;-47
2023/01/08 13:04:51;;;;;;;8.95;2.17;;;9.30;80.30;;;;;;5021301;28;20025;-48
2023/01/08 13:07:41;;;;;;;5.82;1.60;;;9.30;80.30;;;;;;5032084;28;20029;-46
2023/01/08 13:10:19;;;;;;;;;;;9.30;80.20;;;;;;5032716;28;20049;-46
2023/01/08 13:12:50;;;;;;;10.45;2.63;;;9.40;80.30;;;;;;5031516;28;19919;-48
2023/01/08 13:15:21;;;;;;;9.55;2.30;;;9.30;80.40;;;;;;5018731;28;20364;-45
2023/01/08 13:17:49;;;;;;;10.48;2.30;;;9.30;80.50;;;;;;5030713;28;20057;-46
2023/01/08 13:20:29;;;;;;;10.57;2.30;;;9.30;80.30;;;;;;5030520;28;20029;-47
2023/01/08 13:22:58;;;;;;;10.25;2.50;;;9.30;80.40;;;;;;5026261;28;20037;-45